HAZ2820 ZBTJ-ZSHC
Flight info
| Callsign | HAZ2820 |
|---|---|
| Flight time | N/A |
| Altitude | 36100 |
| Route | ELKUR8W ELKUR W40 DOXAB/K0835S1130 W40 YQG/K0841S1100 W142 DALIM/K0833S1130 A593 DPX A470 IGRAT IGRAT91 |
| Aircraft | B738/M-SDE2E3FGHIRWXY/LB1 |
Departure
| Time | 2026-04-19 06:40 |
|---|---|
| Airport | Tianjin Binhai International Airport (ZBTJ) |
Arrival
| Time | N/A |
|---|---|
| Airport | Hangzhou Xiaoshan International Airport (ZSHC) |
| Time | Latitude | Longitude | Altitude | Speed | Heading |
|---|---|---|---|---|---|
| 2026-04-19 05:50 | 39.12471 | 117.35714 | 17 ft | 0 kts | 74° |
| 2026-04-19 06:28 | 39.12471 | 117.35709 | 17 ft | 2 kts | 75° |
| 2026-04-19 06:28 | 39.12467 | 117.35689 | 17 ft | 2 kts | 92° |
| 2026-04-19 06:29 | 39.12470 | 117.35671 | 17 ft | 2 kts | 110° |
| 2026-04-19 06:29 | 39.12477 | 117.35654 | 17 ft | 2 kts | 129° |
| 2026-04-19 06:29 | 39.12488 | 117.35641 | 17 ft | 2 kts | 148° |
| 2026-04-19 06:29 | 39.12502 | 117.35633 | 17 ft | 2 kts | 167° |
| 2026-04-19 06:30 | 39.12513 | 117.35632 | 17 ft | 0 kts | 181° |
| 2026-04-19 06:30 | 39.12519 | 117.35632 | 17 ft | 0 kts | 184° |
| 2026-04-19 06:31 | 39.12517 | 117.35632 | 17 ft | 2 kts | 184° |
| 2026-04-19 06:31 | 39.12479 | 117.35628 | 17 ft | 8 kts | 184° |
| 2026-04-19 06:32 | 39.12401 | 117.35619 | 15 ft | 11 kts | 186° |
| 2026-04-19 06:32 | 39.12396 | 117.35619 | 15 ft | 1 kts | 186° |
| 2026-04-19 06:32 | 39.12382 | 117.35624 | 15 ft | 3 kts | 157° |
| 2026-04-19 06:32 | 39.12350 | 117.35645 | 15 ft | 6 kts | 153° |
| 2026-04-19 06:33 | 39.12300 | 117.35677 | 15 ft | 9 kts | 154° |
| 2026-04-19 06:33 | 39.12235 | 117.35716 | 16 ft | 10 kts | 153° |
| 2026-04-19 06:33 | 39.12163 | 117.35761 | 16 ft | 12 kts | 154° |
| 2026-04-19 06:33 | 39.12078 | 117.35810 | 17 ft | 13 kts | 167° |
| 2026-04-19 06:34 | 39.12012 | 117.35739 | 18 ft | 14 kts | 245° |
| 2026-04-19 06:34 | 39.11968 | 117.35618 | 19 ft | 15 kts | 244° |
| 2026-04-19 06:34 | 39.11920 | 117.35489 | 20 ft | 16 kts | 244° |
| 2026-04-19 06:34 | 39.11866 | 117.35351 | 20 ft | 18 kts | 243° |
| 2026-04-19 06:35 | 39.11768 | 117.35280 | 17 ft | 18 kts | 156° |
| 2026-04-19 06:35 | 39.11648 | 117.35355 | 17 ft | 18 kts | 153° |
| 2026-04-19 06:35 | 39.11526 | 117.35430 | 16 ft | 19 kts | 154° |
| 2026-04-19 06:35 | 39.11404 | 117.35505 | 15 ft | 19 kts | 153° |
| 2026-04-19 06:36 | 39.11276 | 117.35583 | 15 ft | 20 kts | 155° |
| 2026-04-19 06:36 | 39.11197 | 117.35545 | 16 ft | 0 kts | 243° |
| 2026-04-19 06:36 | 39.11197 | 117.35544 | 16 ft | 0 kts | 244° |
| 2026-04-19 06:38 | 39.11197 | 117.35543 | 16 ft | 0 kts | 244° |
| 2026-04-19 06:38 | 39.11194 | 117.35535 | 17 ft | 2 kts | 243° |
| 2026-04-19 06:38 | 39.11182 | 117.35504 | 18 ft | 5 kts | 244° |
| 2026-04-19 06:39 | 39.11161 | 117.35434 | 20 ft | 10 kts | 272° |
| 2026-04-19 06:39 | 39.11230 | 117.35355 | 20 ft | 18 kts | 333° |
| 2026-04-19 06:39 | 39.11392 | 117.35255 | 18 ft | 47 kts | 333° |
| 2026-04-19 06:39 | 39.11917 | 117.34932 | 20 ft | 118 kts | 334° |
| 2026-04-19 06:40 | 39.12837 | 117.34381 | 56 ft | 169 kts | 334° |
| 2026-04-19 06:40 | 39.13985 | 117.33768 | 643 ft | 181 kts | 328° |
| 2026-04-19 06:40 | 39.15008 | 117.32968 | 1642 ft | 174 kts | 330° |
| 2026-04-19 06:40 | 39.16053 | 117.32373 | 2502 ft | 164 kts | 333° |
| 2026-04-19 06:41 | 39.17086 | 117.31747 | 3162 ft | 165 kts | 331° |
| 2026-04-19 06:41 | 39.18130 | 117.31110 | 3665 ft | 175 kts | 332° |
| 2026-04-19 06:41 | 39.19287 | 117.30420 | 4083 ft | 190 kts | 332° |
| 2026-04-19 06:41 | 39.20562 | 117.29667 | 4346 ft | 216 kts | 333° |
| 2026-04-19 06:42 | 39.21899 | 117.28631 | 4689 ft | 236 kts | 313° |
| 2026-04-19 06:42 | 39.22821 | 117.26816 | 5184 ft | 251 kts | 292° |
| 2026-04-19 06:42 | 39.23308 | 117.24619 | 5846 ft | 260 kts | 276° |
| 2026-04-19 06:42 | 39.23142 | 117.22282 | 6555 ft | 268 kts | 251° |
| 2026-04-19 06:43 | 39.22197 | 117.20228 | 7304 ft | 272 kts | 232° |
| 2026-04-19 06:43 | 39.20796 | 117.18587 | 8107 ft | 276 kts | 213° |
| 2026-04-19 06:43 | 39.19054 | 117.17574 | 8968 ft | 276 kts | 203° |
| 2026-04-19 06:43 | 39.17301 | 117.16654 | 9850 ft | 272 kts | 205° |
| 2026-04-19 06:44 | 39.15549 | 117.15650 | 10403 ft | 281 kts | 206° |
| 2026-04-19 06:44 | 39.13703 | 117.14605 | 10739 ft | 298 kts | 205° |
| 2026-04-19 06:44 | 39.11753 | 117.13526 | 10916 ft | 319 kts | 204° |
| 2026-04-19 06:44 | 39.09642 | 117.12364 | 11140 ft | 336 kts | 205° |
| 2026-04-19 06:45 | 39.07432 | 117.11121 | 11418 ft | 352 kts | 205° |
| 2026-04-19 06:45 | 39.05170 | 117.09836 | 11929 ft | 360 kts | 205° |
| 2026-04-19 06:45 | 39.02882 | 117.08535 | 12661 ft | 360 kts | 205° |
| 2026-04-19 06:45 | 39.00600 | 117.07257 | 13345 ft | 359 kts | 205° |
| 2026-04-19 06:46 | 38.98301 | 117.06001 | 14034 ft | 360 kts | 205° |
| 2026-04-19 06:46 | 38.95995 | 117.04739 | 14744 ft | 361 kts | 205° |
| 2026-04-19 06:46 | 38.93684 | 117.03450 | 15356 ft | 366 kts | 206° |
| 2026-04-19 06:46 | 38.91348 | 117.02129 | 16000 ft | 367 kts | 206° |
| 2026-04-19 06:47 | 38.89142 | 117.00876 | 16742 ft | 365 kts | 207° |
| 2026-04-19 06:47 | 38.86798 | 116.99555 | 17326 ft | 368 kts | 207° |
| 2026-04-19 06:47 | 38.84433 | 116.98238 | 17819 ft | 373 kts | 206° |
| 2026-04-19 06:47 | 38.82030 | 116.96918 | 18351 ft | 377 kts | 207° |
| 2026-04-19 06:48 | 38.79626 | 116.95583 | 18906 ft | 377 kts | 209° |
| 2026-04-19 06:48 | 38.77329 | 116.93880 | 19193 ft | 382 kts | 219° |
| 2026-04-19 06:48 | 38.75332 | 116.91661 | 19657 ft | 382 kts | 229° |
| 2026-04-19 06:48 | 38.73665 | 116.89037 | 20315 ft | 378 kts | 237° |
| 2026-04-19 06:49 | 38.72316 | 116.86130 | 20874 ft | 378 kts | 243° |
| 2026-04-19 06:49 | 38.71100 | 116.83162 | 21301 ft | 382 kts | 243° |
| 2026-04-19 06:49 | 38.69845 | 116.80176 | 21730 ft | 385 kts | 242° |
| 2026-04-19 06:49 | 38.68371 | 116.77264 | 22093 ft | 391 kts | 235° |
| 2026-04-19 06:50 | 38.66609 | 116.74581 | 22496 ft | 395 kts | 231° |
| 2026-04-19 06:50 | 38.64711 | 116.72047 | 22929 ft | 399 kts | 226° |
| 2026-04-19 06:50 | 38.62516 | 116.69871 | 23436 ft | 405 kts | 216° |
| 2026-04-19 06:50 | 38.59993 | 116.68202 | 23903 ft | 410 kts | 211° |
| 2026-04-19 06:51 | 38.57384 | 116.66689 | 24182 ft | 417 kts | 208° |
| 2026-04-19 06:51 | 38.54606 | 116.65537 | 24666 ft | 425 kts | 198° |
| 2026-04-19 06:51 | 38.51624 | 116.65037 | 24956 ft | 437 kts | 191° |
| 2026-04-19 06:51 | 38.48599 | 116.64786 | 25368 ft | 438 kts | 191° |
| 2026-04-19 06:52 | 38.45576 | 116.64492 | 25795 ft | 438 kts | 192° |
| 2026-04-19 06:52 | 38.42490 | 116.64120 | 25935 ft | 444 kts | 193° |
| 2026-04-19 06:52 | 38.39418 | 116.63717 | 26184 ft | 449 kts | 192° |
| 2026-04-19 06:52 | 38.36298 | 116.63319 | 26411 ft | 454 kts | 192° |
| 2026-04-19 06:53 | 38.33150 | 116.63035 | 26772 ft | 459 kts | 188° |
| 2026-04-19 06:53 | 38.29925 | 116.63097 | 27074 ft | 467 kts | 182° |
| 2026-04-19 06:53 | 38.26693 | 116.63634 | 27360 ft | 476 kts | 175° |
| 2026-04-19 06:53 | 38.23417 | 116.64678 | 27609 ft | 485 kts | 170° |
| 2026-04-19 06:54 | 38.20192 | 116.65917 | 27944 ft | 487 kts | 169° |
| 2026-04-19 06:54 | 38.16929 | 116.67151 | 28191 ft | 490 kts | 170° |
| 2026-04-19 06:54 | 38.13621 | 116.68346 | 28429 ft | 493 kts | 171° |